sensor_id;sensor_type;location;lat;lon;timestamp;temperature;humidity
26099;DHT22;13860;52.370;6.764;2023-08-17T00:01:27;19.30;68.60
26099;DHT22;13860;52.370;6.764;2023-08-17T00:04:35;19.30;68.60
26099;DHT22;13860;52.370;6.764;2023-08-17T00:07:42;19.20;68.70
26099;DHT22;13860;52.370;6.764;2023-08-17T00:10:52;19.20;68.80
26099;DHT22;13860;52.370;6.764;2023-08-17T00:13:57;19.10;68.90
26099;DHT22;13860;52.370;6.764;2023-08-17T00:17:05;19.10;69.00
26099;DHT22;13860;52.370;6.764;2023-08-17T00:20:10;19.10;69.00
26099;DHT22;13860;52.370;6.764;2023-08-17T00:23:18;19.10;69.10
26099;DHT22;13860;52.370;6.764;2023-08-17T00:26:26;19.10;69.10
26099;DHT22;13860;52.370;6.764;2023-08-17T00:29:33;19.10;69.20
26099;DHT22;13860;52.370;6.764;2023-08-17T00:32:39;19.00;69.20
26099;DHT22;13860;52.370;6.764;2023-08-17T00:35:49;19.00;69.30
26099;DHT22;13860;52.370;6.764;2023-08-17T00:38:54;19.00;69.40
26099;DHT22;13860;52.370;6.764;2023-08-17T00:42:05;18.90;69.40
26099;DHT22;13860;52.370;6.764;2023-08-17T00:45:10;18.90;69.50
26099;DHT22;13860;52.370;6.764;2023-08-17T00:48:18;18.90;69.50
26099;DHT22;13860;52.370;6.764;2023-08-17T00:51:24;18.90;69.60
26099;DHT22;13860;52.370;6.764;2023-08-17T00:54:32;18.80;69.70
26099;DHT22;13860;52.370;6.764;2023-08-17T00:57:45;18.80;69.80
26099;DHT22;13860;52.370;6.764;2023-08-17T01:00:52;18.70;69.90
26099;DHT22;13860;52.370;6.764;2023-08-17T01:03:58;18.70;69.90
26099;DHT22;13860;52.370;6.764;2023-08-17T01:07:05;18.70;70.00
26099;DHT22;13860;52.370;6.764;2023-08-17T01:10:11;18.70;70.10
26099;DHT22;13860;52.370;6.764;2023-08-17T01:13:25;18.70;70.10
26099;DHT22;13860;52.370;6.764;2023-08-17T01:16:39;18.70;70.30
26099;DHT22;13860;52.370;6.764;2023-08-17T01:19:49;18.70;70.30
26099;DHT22;13860;52.370;6.764;2023-08-17T01:23:05;18.70;70.20
26099;DHT22;13860;52.370;6.764;2023-08-17T01:26:13;18.70;70.30
26099;DHT22;13860;52.370;6.764;2023-08-17T01:29:21;18.70;70.30
26099;DHT22;13860;52.370;6.764;2023-08-17T01:32:36;18.70;70.30
26099;DHT22;13860;52.370;6.764;2023-08-17T01:35:45;18.70;70.40
26099;DHT22;13860;52.370;6.764;2023-08-17T01:38:56;18.70;70.40
26099;DHT22;13860;52.370;6.764;2023-08-17T01:42:02;18.70;70.50
26099;DHT22;13860;52.370;6.764;2023-08-17T01:45:11;18.70;70.40
26099;DHT22;13860;52.370;6.764;2023-08-17T01:48:18;18.70;70.40
26099;DHT22;13860;52.370;6.764;2023-08-17T01:51:26;18.70;70.40
26099;DHT22;13860;52.370;6.764;2023-08-17T01:54:34;18.60;70.50
26099;DHT22;13860;52.370;6.764;2023-08-17T01:57:42;18.70;70.60
26099;DHT22;13860;52.370;6.764;2023-08-17T02:00:47;18.60;70.60
26099;DHT22;13860;52.370;6.764;2023-08-17T02:03:55;18.60;70.60
26099;DHT22;13860;52.370;6.764;2023-08-17T02:07:02;18.60;70.60
26099;DHT22;13860;52.370;6.764;2023-08-17T02:10:13;18.60;70.70
26099;DHT22;13860;52.370;6.764;2023-08-17T02:13:19;18.60;70.70
26099;DHT22;13860;52.370;6.764;2023-08-17T02:16:27;18.60;70.80
26099;DHT22;13860;52.370;6.764;2023-08-17T02:19:32;18.50;70.80
26099;DHT22;13860;52.370;6.764;2023-08-17T02:22:40;18.50;70.80
26099;DHT22;13860;52.370;6.764;2023-08-17T02:25:48;18.50;70.80
26099;DHT22;13860;52.370;6.764;2023-08-17T02:28:58;18.50;70.90
26099;DHT22;13860;52.370;6.764;2023-08-17T02:32:04;18.50;70.90
26099;DHT22;13860;52.370;6.764;2023-08-17T02:35:15;18.50;71.00
26099;DHT22;13860;52.370;6.764;2023-08-17T02:38:20;18.50;70.90
26099;DHT22;13860;52.370;6.764;2023-08-17T02:41:31;18.50;71.00
26099;DHT22;13860;52.370;6.764;2023-08-17T02:44:37;18.50;71.10
26099;DHT22;13860;52.370;6.764;2023-08-17T02:47:46;18.50;71.10
26099;DHT22;13860;52.370;6.764;2023-08-17T02:50:51;18.40;71.10
26099;DHT22;13860;52.370;6.764;2023-08-17T02:53:58;18.50;71.20
26099;DHT22;13860;52.370;6.764;2023-08-17T02:57:07;18.40;71.10
26099;DHT22;13860;52.370;6.764;2023-08-17T03:00:15;18.40;71.20
26099;DHT22;13860;52.370;6.764;2023-08-17T03:03:20;18.40;71.20
26099;DHT22;13860;52.370;6.764;2023-08-17T03:06:28;18.40;71.20
26099;DHT22;13860;52.370;6.764;2023-08-17T03:09:33;18.40;71.20
26099;DHT22;13860;52.370;6.764;2023-08-17T03:12:43;18.30;71.20
26099;DHT22;13860;52.370;6.764;2023-08-17T03:15:48;18.30;71.30
26099;DHT22;13860;52.370;6.764;2023-08-17T03:18:57;18.30;71.30
26099;DHT22;13860;52.370;6.764;2023-08-17T03:22:03;18.40;71.40
26099;DHT22;13860;52.370;6.764;2023-08-17T03:25:10;18.30;71.40
26099;DHT22;13860;52.370;6.764;2023-08-17T03:28:20;18.30;71.40
26099;DHT22;13860;52.370;6.764;2023-08-17T03:31:29;18.30;71.50
26099;DHT22;13860;52.370;6.764;2023-08-17T03:34:34;18.30;71.40
26099;DHT22;13860;52.370;6.764;2023-08-17T03:37:42;18.30;71.50
26099;DHT22;13860;52.370;6.764;2023-08-17T03:40:48;18.30;71.50
26099;DHT22;13860;52.370;6.764;2023-08-17T03:44:02;18.30;71.50
26099;DHT22;13860;52.370;6.764;2023-08-17T03:47:08;18.30;71.60
26099;DHT22;13860;52.370;6.764;2023-08-17T03:50:16;18.40;71.70
26099;DHT22;13860;52.370;6.764;2023-08-17T03:53:21;18.40;71.70
26099;DHT22;13860;52.370;6.764;2023-08-17T03:56:29;18.40;71.70
26099;DHT22;13860;52.370;6.764;2023-08-17T03:59:37;18.40;71.70
26099;DHT22;13860;52.370;6.764;2023-08-17T04:02:45;18.40;72.30
26099;DHT22;13860;52.370;6.764;2023-08-17T04:05:54;18.40;71.70
26099;DHT22;13860;52.370;6.764;2023-08-17T04:09:01;18.40;71.70
26099;DHT22;13860;52.370;6.764;2023-08-17T04:12:08;18.40;71.60
26099;DHT22;13860;52.370;6.764;2023-08-17T04:15:18;18.40;71.70
26099;DHT22;13860;52.370;6.764;2023-08-17T04:18:23;18.40;71.80
26099;DHT22;13860;52.370;6.764;2023-08-17T04:21:31;18.40;71.70
26099;DHT22;13860;52.370;6.764;2023-08-17T04:24:39;18.40;71.70
26099;DHT22;13860;52.370;6.764;2023-08-17T04:27:46;18.40;71.80
26099;DHT22;13860;52.370;6.764;2023-08-17T04:30:54;18.40;71.80
26099;DHT22;13860;52.370;6.764;2023-08-17T04:34:06;18.40;71.80
26099;DHT22;13860;52.370;6.764;2023-08-17T04:37:12;18.40;71.80
26099;DHT22;13860;52.370;6.764;2023-08-17T04:40:19;18.40;71.90
26099;DHT22;13860;52.370;6.764;2023-08-17T04:43:25;18.40;71.80
26099;DHT22;13860;52.370;6.764;2023-08-17T04:46:36;18.40;71.90
26099;DHT22;13860;52.370;6.764;2023-08-17T04:49:41;18.40;71.90
26099;DHT22;13860;52.370;6.764;2023-08-17T04:52:48;18.40;71.90
26099;DHT22;13860;52.370;6.764;2023-08-17T04:55:54;18.30;71.90
26099;DHT22;13860;52.370;6.764;2023-08-17T04:59:05;18.30;71.90
26099;DHT22;13860;52.370;6.764;2023-08-17T05:02:13;18.40;72.00
26099;DHT22;13860;52.370;6.764;2023-08-17T05:05:21;18.30;72.00
26099;DHT22;13860;52.370;6.764;2023-08-17T05:08:27;18.30;72.00
26099;DHT22;13860;52.370;6.764;2023-08-17T05:11:34;18.30;72.10
26099;DHT22;13860;52.370;6.764;2023-08-17T05:14:40;18.30;72.20
26099;DHT22;13860;52.370;6.764;2023-08-17T05:17:50;18.30;72.20
26099;DHT22;13860;52.370;6.764;2023-08-17T05:20:56;18.30;72.30
26099;DHT22;13860;52.370;6.764;2023-08-17T05:24:04;18.30;72.30
26099;DHT22;13860;52.370;6.764;2023-08-17T05:27:10;18.30;72.40
26099;DHT22;13860;52.370;6.764;2023-08-17T05:30:18;18.20;72.30
26099;DHT22;13860;52.370;6.764;2023-08-17T05:33:26;18.20;72.40
26099;DHT22;13860;52.370;6.764;2023-08-17T05:36:33;18.20;72.50
26099;DHT22;13860;52.370;6.764;2023-08-17T05:39:38;18.20;72.50
26099;DHT22;13860;52.370;6.764;2023-08-17T05:42:46;18.20;72.60
26099;DHT22;13860;52.370;6.764;2023-08-17T05:45:52;18.20;72.60
26099;DHT22;13860;52.370;6.764;2023-08-17T05:49:05;18.20;72.60
26099;DHT22;13860;52.370;6.764;2023-08-17T05:52:10;18.20;72.70
26099;DHT22;13860;52.370;6.764;2023-08-17T05:55:17;18.20;72.70
26099;DHT22;13860;52.370;6.764;2023-08-17T05:58:23;18.20;72.90
26099;DHT22;13860;52.370;6.764;2023-08-17T06:01:30;18.20;72.90
26099;DHT22;13860;52.370;6.764;2023-08-17T06:04:38;18.20;72.90
26099;DHT22;13860;52.370;6.764;2023-08-17T06:07:46;18.20;73.00
26099;DHT22;13860;52.370;6.764;2023-08-17T06:10:51;18.20;72.90
26099;DHT22;13860;52.370;6.764;2023-08-17T06:13:59;18.20;73.60
26099;DHT22;13860;52.370;6.764;2023-08-17T06:17:04;18.20;73.00
26099;DHT22;13860;52.370;6.764;2023-08-17T06:20:14;18.20;73.10
26099;DHT22;13860;52.370;6.764;2023-08-17T06:23:20;18.20;73.10
26099;DHT22;13860;52.370;6.764;2023-08-17T06:26:28;18.30;73.10
26099;DHT22;13860;52.370;6.764;2023-08-17T06:29:33;18.30;73.20
26099;DHT22;13860;52.370;6.764;2023-08-17T06:32:40;18.30;73.10
26099;DHT22;13860;52.370;6.764;2023-08-17T06:35:48;18.30;73.20
26099;DHT22;13860;52.370;6.764;2023-08-17T06:38:56;18.40;73.30
26099;DHT22;13860;52.370;6.764;2023-08-17T06:42:01;18.40;73.20
26099;DHT22;13860;52.370;6.764;2023-08-17T06:45:10;18.40;73.20
26099;DHT22;13860;52.370;6.764;2023-08-17T06:48:15;18.50;73.20
26099;DHT22;13860;52.370;6.764;2023-08-17T06:51:25;18.50;73.20
26099;DHT22;13860;52.370;6.764;2023-08-17T06:54:31;18.50;73.30
26099;DHT22;13860;52.370;6.764;2023-08-17T06:57:38;18.60;73.20
26099;DHT22;13860;52.370;6.764;2023-08-17T07:00:43;18.60;73.20
26099;DHT22;13860;52.370;6.764;2023-08-17T07:03:52;18.60;73.20
26099;DHT22;13860;52.370;6.764;2023-08-17T07:07:01;18.70;73.20
26099;DHT22;13860;52.370;6.764;2023-08-17T07:10:11;18.70;73.20
26099;DHT22;13860;52.370;6.764;2023-08-17T07:13:16;18.70;73.20
26099;DHT22;13860;52.370;6.764;2023-08-17T07:16:24;18.80;73.20
26099;DHT22;13860;52.370;6.764;2023-08-17T07:19:29;18.80;73.20
26099;DHT22;13860;52.370;6.764;2023-08-17T07:22:59;18.80;73.20
26099;DHT22;13860;52.370;6.764;2023-08-17T07:26:05;18.80;73.20
26099;DHT22;13860;52.370;6.764;2023-08-17T07:29:16;18.90;73.30
26099;DHT22;13860;52.370;6.764;2023-08-17T07:32:21;18.90;73.30
26099;DHT22;13860;52.370;6.764;2023-08-17T07:35:30;18.90;73.30
26099;DHT22;13860;52.370;6.764;2023-08-17T07:38:38;18.90;73.20
26099;DHT22;13860;52.370;6.764;2023-08-17T07:41:46;19.00;73.30
26099;DHT22;13860;52.370;6.764;2023-08-17T07:44:51;19.00;73.20
26099;DHT22;13860;52.370;6.764;2023-08-17T07:47:58;19.00;73.20
26099;DHT22;13860;52.370;6.764;2023-08-17T07:51:04;19.10;73.20
26099;DHT22;13860;52.370;6.764;2023-08-17T07:54:14;19.10;73.20
26099;DHT22;13860;52.370;6.764;2023-08-17T07:57:19;19.10;73.20
26099;DHT22;13860;52.370;6.764;2023-08-17T08:00:26;19.10;73.60
26099;DHT22;13860;52.370;6.764;2023-08-17T08:03:32;19.10;73.20
26099;DHT22;13860;52.370;6.764;2023-08-17T08:06:39;19.20;73.20
26099;DHT22;13860;52.370;6.764;2023-08-17T08:09:47;19.20;73.20
26099;DHT22;13860;52.370;6.764;2023-08-17T08:12:54;19.20;73.30
26099;DHT22;13860;52.370;6.764;2023-08-17T08:16:00;19.20;73.20
26099;DHT22;13860;52.370;6.764;2023-08-17T08:19:07;19.30;73.30
26099;DHT22;13860;52.370;6.764;2023-08-17T08:22:12;19.30;73.30
26099;DHT22;13860;52.370;6.764;2023-08-17T08:25:22;19.30;73.30
26099;DHT22;13860;52.370;6.764;2023-08-17T08:28:28;19.30;73.40
26099;DHT22;13860;52.370;6.764;2023-08-17T08:31:35;19.30;73.30
26099;DHT22;13860;52.370;6.764;2023-08-17T08:34:41;19.40;73.30
26099;DHT22;13860;52.370;6.764;2023-08-17T08:37:49;19.40;73.30
26099;DHT22;13860;52.370;6.764;2023-08-17T08:40:57;19.40;73.30
26099;DHT22;13860;52.370;6.764;2023-08-17T08:44:07;19.40;73.30
26099;DHT22;13860;52.370;6.764;2023-08-17T08:47:13;19.40;73.30
26099;DHT22;13860;52.370;6.764;2023-08-17T08:50:21;19.40;73.30
26099;DHT22;13860;52.370;6.764;2023-08-17T08:53:32;19.40;73.40
26099;DHT22;13860;52.370;6.764;2023-08-17T08:56:50;19.40;73.50
26099;DHT22;13860;52.370;6.764;2023-08-17T08:59:59;19.40;73.50
26099;DHT22;13860;52.370;6.764;2023-08-17T09:03:07;19.40;73.50
26099;DHT22;13860;52.370;6.764;2023-08-17T09:06:16;19.40;73.60
26099;DHT22;13860;52.370;6.764;2023-08-17T09:09:27;19.40;73.60
26099;DHT22;13860;52.370;6.764;2023-08-17T09:12:35;19.40;73.50
26099;DHT22;13860;52.370;6.764;2023-08-17T09:15:45;19.40;73.60
26099;DHT22;13860;52.370;6.764;2023-08-17T09:18:52;19.40;73.60
26099;DHT22;13860;52.370;6.764;2023-08-17T09:22:00;19.40;73.70
26099;DHT22;13860;52.370;6.764;2023-08-17T09:25:07;19.40;73.70
26099;DHT22;13860;52.370;6.764;2023-08-17T09:28:18;19.40;73.70
26099;DHT22;13860;52.370;6.764;2023-08-17T09:31:26;19.40;73.80
26099;DHT22;13860;52.370;6.764;2023-08-17T09:34:34;19.40;73.80
26099;DHT22;13860;52.370;6.764;2023-08-17T09:37:39;19.50;73.80
26099;DHT22;13860;52.370;6.764;2023-08-17T09:40:47;19.50;73.80
26099;DHT22;13860;52.370;6.764;2023-08-17T09:43:55;19.50;73.80
26099;DHT22;13860;52.370;6.764;2023-08-17T09:47:05;19.50;73.90
26099;DHT22;13860;52.370;6.764;2023-08-17T09:50:10;19.60;73.90
26099;DHT22;13860;52.370;6.764;2023-08-17T09:53:18;19.60;73.80
26099;DHT22;13860;52.370;6.764;2023-08-17T09:56:24;19.60;73.90
26099;DHT22;13860;52.370;6.764;2023-08-17T09:59:34;19.60;73.90
26099;DHT22;13860;52.370;6.764;2023-08-17T10:02:42;19.60;74.00
26099;DHT22;13860;52.370;6.764;2023-08-17T10:05:56;19.60;74.10
26099;DHT22;13860;52.370;6.764;2023-08-17T10:09:04;19.70;74.20
26099;DHT22;13860;52.370;6.764;2023-08-17T10:12:15;19.70;74.10
26099;DHT22;13860;52.370;6.764;2023-08-17T10:15:26;19.70;74.10
26099;DHT22;13860;52.370;6.764;2023-08-17T10:18:39;19.70;74.10
26099;DHT22;13860;52.370;6.764;2023-08-17T10:21:56;19.70;74.10
26099;DHT22;13860;52.370;6.764;2023-08-17T10:25:06;19.80;74.20
26099;DHT22;13860;52.370;6.764;2023-08-17T10:28:15;19.80;74.20
26099;DHT22;13860;52.370;6.764;2023-08-17T10:31:25;19.80;74.10
26099;DHT22;13860;52.370;6.764;2023-08-17T10:34:31;19.90;74.10
26099;DHT22;13860;52.370;6.764;2023-08-17T10:37:40;19.90;74.10
26099;DHT22;13860;52.370;6.764;2023-08-17T10:41:09;19.90;74.20
26099;DHT22;13860;52.370;6.764;2023-08-17T10:44:38;19.90;74.20
26099;DHT22;13860;52.370;6.764;2023-08-17T10:47:47;19.90;74.20
26099;DHT22;13860;52.370;6.764;2023-08-17T10:51:04;19.90;74.10
26099;DHT22;13860;52.370;6.764;2023-08-17T10:54:10;19.90;74.30
26099;DHT22;13860;52.370;6.764;2023-08-17T10:57:31;19.90;74.20
26099;DHT22;13860;52.370;6.764;2023-08-17T11:00:37;20.00;74.30
26099;DHT22;13860;52.370;6.764;2023-08-17T11:04:09;19.90;74.20
26099;DHT22;13860;52.370;6.764;2023-08-17T11:07:14;19.90;74.30
26099;DHT22;13860;52.370;6.764;2023-08-17T11:10:29;19.90;74.30
26099;DHT22;13860;52.370;6.764;2023-08-17T11:13:37;19.90;74.40
26099;DHT22;13860;52.370;6.764;2023-08-17T11:16:46;19.90;74.30
26099;DHT22;13860;52.370;6.764;2023-08-17T11:19:54;19.90;74.40
26099;DHT22;13860;52.370;6.764;2023-08-17T11:23:02;19.90;74.40
26099;DHT22;13860;52.370;6.764;2023-08-17T11:26:09;19.90;74.40
26099;DHT22;13860;52.370;6.764;2023-08-17T11:29:17;19.90;74.40
26099;DHT22;13860;52.370;6.764;2023-08-17T11:32:23;19.90;74.40
26099;DHT22;13860;52.370;6.764;2023-08-17T11:35:33;19.80;74.50
26099;DHT22;13860;52.370;6.764;2023-08-17T11:38:42;19.80;74.60
26099;DHT22;13860;52.370;6.764;2023-08-17T11:41:52;19.90;74.70
26099;DHT22;13860;52.370;6.764;2023-08-17T11:45:00;19.90;74.60
26099;DHT22;13860;52.370;6.764;2023-08-17T11:48:08;19.90;74.80
26099;DHT22;13860;52.370;6.764;2023-08-17T11:51:28;19.90;74.80
26099;DHT22;13860;52.370;6.764;2023-08-17T11:54:44;19.90;74.90
26099;DHT22;13860;52.370;6.764;2023-08-17T11:57:53;19.90;74.80
26099;DHT22;13860;52.370;6.764;2023-08-17T12:01:00;19.90;74.80
26099;DHT22;13860;52.370;6.764;2023-08-17T12:04:06;19.90;74.80
26099;DHT22;13860;52.370;6.764;2023-08-17T12:07:17;19.90;74.80
26099;DHT22;13860;52.370;6.764;2023-08-17T12:10:24;20.00;74.90
26099;DHT22;13860;52.370;6.764;2023-08-17T12:13:32;20.00;74.90
26099;DHT22;13860;52.370;6.764;2023-08-17T12:16:46;20.00;74.90
26099;DHT22;13860;52.370;6.764;2023-08-17T12:19:55;20.00;75.00
26099;DHT22;13860;52.370;6.764;2023-08-17T12:23:03;20.10;74.90
26099;DHT22;13860;52.370;6.764;2023-08-17T12:26:18;20.00;74.90
26099;DHT22;13860;52.370;6.764;2023-08-17T12:29:24;20.10;75.00
26099;DHT22;13860;52.370;6.764;2023-08-17T12:32:34;20.10;75.00
26099;DHT22;13860;52.370;6.764;2023-08-17T12:35:40;20.10;75.00
26099;DHT22;13860;52.370;6.764;2023-08-17T12:38:52;20.20;75.00
26099;DHT22;13860;52.370;6.764;2023-08-17T12:41:58;20.20;75.10
26099;DHT22;13860;52.370;6.764;2023-08-17T12:45:06;20.20;75.00
26099;DHT22;13860;52.370;6.764;2023-08-17T12:48:12;20.20;75.00
26099;DHT22;13860;52.370;6.764;2023-08-17T12:51:19;20.20;75.00
26099;DHT22;13860;52.370;6.764;2023-08-17T12:54:27;20.30;75.10
26099;DHT22;13860;52.370;6.764;2023-08-17T12:57:35;20.40;75.10
26099;DHT22;13860;52.370;6.764;2023-08-17T13:00:40;20.40;75.00
26099;DHT22;13860;52.370;6.764;2023-08-17T13:03:47;20.50;75.00
26099;DHT22;13860;52.370;6.764;2023-08-17T13:06:53;20.60;75.00
26099;DHT22;13860;52.370;6.764;2023-08-17T13:10:06;20.70;75.00
26099;DHT22;13860;52.370;6.764;2023-08-17T13:13:12;20.70;74.80
26099;DHT22;13860;52.370;6.764;2023-08-17T13:16:19;20.70;74.80
26099;DHT22;13860;52.370;6.764;2023-08-17T13:19:25;20.70;74.80
26099;DHT22;13860;52.370;6.764;2023-08-17T13:22:32;20.80;74.80
26099;DHT22;13860;52.370;6.764;2023-08-17T13:25:40;20.80;74.80
26099;DHT22;13860;52.370;6.764;2023-08-17T13:28:50;20.80;74.80
26099;DHT22;13860;52.370;6.764;2023-08-17T13:31:56;20.80;74.70
26099;DHT22;13860;52.370;6.764;2023-08-17T13:35:06;20.90;74.80
26099;DHT22;13860;52.370;6.764;2023-08-17T13:38:12;20.90;74.80
26099;DHT22;13860;52.370;6.764;2023-08-17T13:41:22;20.90;74.70
26099;DHT22;13860;52.370;6.764;2023-08-17T13:44:28;21.00;74.80
26099;DHT22;13860;52.370;6.764;2023-08-17T13:47:35;21.00;74.70
26099;DHT22;13860;52.370;6.764;2023-08-17T13:50:49;21.00;74.70
26099;DHT22;13860;52.370;6.764;2023-08-17T13:53:57;21.00;74.60
26099;DHT22;13860;52.370;6.764;2023-08-17T13:57:05;21.00;74.60
26099;DHT22;13860;52.370;6.764;2023-08-17T14:00:13;21.10;74.70
26099;DHT22;13860;52.370;6.764;2023-08-17T14:03:23;21.10;74.70
26099;DHT22;13860;52.370;6.764;2023-08-17T14:06:30;21.10;74.70
26099;DHT22;13860;52.370;6.764;2023-08-17T14:09:36;21.10;74.80
26099;DHT22;13860;52.370;6.764;2023-08-17T14:12:52;21.10;74.70
26099;DHT22;13860;52.370;6.764;2023-08-17T14:15:57;21.10;74.80
26099;DHT22;13860;52.370;6.764;2023-08-17T14:19:05;21.10;74.70
26099;DHT22;13860;52.370;6.764;2023-08-17T14:22:10;21.20;74.80
26099;DHT22;13860;52.370;6.764;2023-08-17T14:25:17;21.20;74.70
26099;DHT22;13860;52.370;6.764;2023-08-17T14:28:25;21.20;74.70
26099;DHT22;13860;52.370;6.764;2023-08-17T14:31:33;21.20;74.70
26099;DHT22;13860;52.370;6.764;2023-08-17T14:34:38;21.20;74.60
26099;DHT22;13860;52.370;6.764;2023-08-17T14:37:46;21.30;74.70
26099;DHT22;13860;52.370;6.764;2023-08-17T14:40:51;21.30;74.70
26099;DHT22;13860;52.370;6.764;2023-08-17T14:44:01;21.30;74.70
26099;DHT22;13860;52.370;6.764;2023-08-17T14:47:07;21.30;74.70
26099;DHT22;13860;52.370;6.764;2023-08-17T14:50:16;21.30;74.70
26099;DHT22;13860;52.370;6.764;2023-08-17T14:53:21;21.30;74.60
26099;DHT22;13860;52.370;6.764;2023-08-17T14:56:29;21.40;74.70
26099;DHT22;13860;52.370;6.764;2023-08-17T14:59:37;21.30;74.70
26099;DHT22;13860;52.370;6.764;2023-08-17T15:02:44;21.40;74.80
26099;DHT22;13860;52.370;6.764;2023-08-17T15:05:52;21.40;74.70
26099;DHT22;13860;52.370;6.764;2023-08-17T15:09:01;21.40;74.70
26099;DHT22;13860;52.370;6.764;2023-08-17T15:12:08;21.40;74.80
26099;DHT22;13860;52.370;6.764;2023-08-17T15:15:21;21.40;74.80
26099;DHT22;13860;52.370;6.764;2023-08-17T15:18:27;21.50;74.80
26099;DHT22;13860;52.370;6.764;2023-08-17T15:21:37;21.50;74.80
26099;DHT22;13860;52.370;6.764;2023-08-17T15:24:42;21.50;74.70
26099;DHT22;13860;52.370;6.764;2023-08-17T15:27:51;21.60;74.80
26099;DHT22;13860;52.370;6.764;2023-08-17T15:31:05;21.60;74.70
26099;DHT22;13860;52.370;6.764;2023-08-17T15:34:16;21.60;74.80
26099;DHT22;13860;52.370;6.764;2023-08-17T15:37:22;21.70;74.60
26099;DHT22;13860;52.370;6.764;2023-08-17T15:40:30;21.70;74.60
26099;DHT22;13860;52.370;6.764;2023-08-17T15:43:36;21.70;74.60
26099;DHT22;13860;52.370;6.764;2023-08-17T15:46:46;21.70;74.60
26099;DHT22;13860;52.370;6.764;2023-08-17T15:49:51;21.70;74.70
26099;DHT22;13860;52.370;6.764;2023-08-17T15:52:59;21.70;74.60
26099;DHT22;13860;52.370;6.764;2023-08-17T15:56:05;21.70;74.60
26099;DHT22;13860;52.370;6.764;2023-08-17T15:59:13;21.70;74.50
26099;DHT22;13860;52.370;6.764;2023-08-17T16:02:21;21.70;74.60
26099;DHT22;13860;52.370;6.764;2023-08-17T16:05:28;21.70;74.60
26099;DHT22;13860;52.370;6.764;2023-08-17T16:08:34;21.70;74.50
26099;DHT22;13860;52.370;6.764;2023-08-17T16:11:44;21.60;74.50
26099;DHT22;13860;52.370;6.764;2023-08-17T16:14:49;21.60;74.50
26099;DHT22;13860;52.370;6.764;2023-08-17T16:17:59;21.60;74.40
26099;DHT22;13860;52.370;6.764;2023-08-17T16:21:07;21.60;74.40
26099;DHT22;13860;52.370;6.764;2023-08-17T16:24:18;21.60;74.50
26099;DHT22;13860;52.370;6.764;2023-08-17T16:27:28;21.60;74.40
26099;DHT22;13860;52.370;6.764;2023-08-17T16:30:46;21.50;74.40
26099;DHT22;13860;52.370;6.764;2023-08-17T16:33:54;21.50;74.40
26099;DHT22;13860;52.370;6.764;2023-08-17T16:37:01;21.50;74.30
26099;DHT22;13860;52.370;6.764;2023-08-17T16:40:08;21.50;74.30
26099;DHT22;13860;52.370;6.764;2023-08-17T16:43:38;21.40;74.80
26099;DHT22;13860;52.370;6.764;2023-08-17T16:46:46;21.40;74.30
26099;DHT22;13860;52.370;6.764;2023-08-17T16:50:00;21.40;74.20
26099;DHT22;13860;52.370;6.764;2023-08-17T16:53:06;21.30;74.20
26099;DHT22;13860;52.370;6.764;2023-08-17T16:56:13;21.40;74.20
26099;DHT22;13860;52.370;6.764;2023-08-17T16:59:19;21.30;74.20
26099;DHT22;13860;52.370;6.764;2023-08-17T17:02:30;21.30;74.20
26099;DHT22;13860;52.370;6.764;2023-08-17T17:05:39;21.30;74.20
26099;DHT22;13860;52.370;6.764;2023-08-17T17:08:46;21.30;74.10
26099;DHT22;13860;52.370;6.764;2023-08-17T17:11:51;21.30;74.10
26099;DHT22;13860;52.370;6.764;2023-08-17T17:14:59;21.30;74.10
26099;DHT22;13860;52.370;6.764;2023-08-17T17:18:09;21.30;74.00
26099;DHT22;13860;52.370;6.764;2023-08-17T17:21:22;21.30;74.10
26099;DHT22;13860;52.370;6.764;2023-08-17T17:24:28;21.30;74.10
26099;DHT22;13860;52.370;6.764;2023-08-17T17:27:36;21.30;74.20
26099;DHT22;13860;52.370;6.764;2023-08-17T17:30:42;21.20;74.10
26099;DHT22;13860;52.370;6.764;2023-08-17T17:33:49;21.20;74.10
26099;DHT22;13860;52.370;6.764;2023-08-17T17:36:57;21.20;74.00
26099;DHT22;13860;52.370;6.764;2023-08-17T17:40:06;21.10;74.10
26099;DHT22;13860;52.370;6.764;2023-08-17T17:43:12;21.00;74.10
26099;DHT22;13860;52.370;6.764;2023-08-17T17:46:21;21.00;74.20
26099;DHT22;13860;52.370;6.764;2023-08-17T17:49:26;21.00;74.20
26099;DHT22;13860;52.370;6.764;2023-08-17T17:52:36;21.00;74.10
26099;DHT22;13860;52.370;6.764;2023-08-17T17:55:42;20.90;74.00
26099;DHT22;13860;52.370;6.764;2023-08-17T17:58:49;20.90;74.00
26099;DHT22;13860;52.370;6.764;2023-08-17T18:01:55;20.90;74.10
26099;DHT22;13860;52.370;6.764;2023-08-17T18:05:04;20.90;74.10
26099;DHT22;13860;52.370;6.764;2023-08-17T18:08:12;20.80;74.00
26099;DHT22;13860;52.370;6.764;2023-08-17T18:11:20;20.80;74.00
26099;DHT22;13860;52.370;6.764;2023-08-17T18:14:25;20.70;73.90
26099;DHT22;13860;52.370;6.764;2023-08-17T18:17:32;20.70;73.90
26099;DHT22;13860;52.370;6.764;2023-08-17T18:20:38;20.80;73.90
26099;DHT22;13860;52.370;6.764;2023-08-17T18:23:48;20.70;73.80
26099;DHT22;13860;52.370;6.764;2023-08-17T18:26:54;20.70;73.90
26099;DHT22;13860;52.370;6.764;2023-08-17T18:30:02;20.70;73.90
26099;DHT22;13860;52.370;6.764;2023-08-17T18:33:07;20.60;73.90
26099;DHT22;13860;52.370;6.764;2023-08-17T18:36:15;20.60;73.90
26099;DHT22;13860;52.370;6.764;2023-08-17T18:39:24;20.60;73.90
26099;DHT22;13860;52.370;6.764;2023-08-17T18:42:33;20.50;73.90
26099;DHT22;13860;52.370;6.764;2023-08-17T18:45:46;20.50;74.00
26099;DHT22;13860;52.370;6.764;2023-08-17T18:49:07;20.50;74.00
26099;DHT22;13860;52.370;6.764;2023-08-17T18:52:12;20.50;73.90
26099;DHT22;13860;52.370;6.764;2023-08-17T18:55:26;20.40;73.80
26099;DHT22;13860;52.370;6.764;2023-08-17T18:58:33;20.40;73.80
26099;DHT22;13860;52.370;6.764;2023-08-17T19:01:49;20.30;73.90
26099;DHT22;13860;52.370;6.764;2023-08-17T19:04:54;20.30;73.90
26099;DHT22;13860;52.370;6.764;2023-08-17T19:08:08;20.20;73.90
26099;DHT22;13860;52.370;6.764;2023-08-17T19:11:16;20.20;73.90
26099;DHT22;13860;52.370;6.764;2023-08-17T19:14:23;20.20;73.90
26099;DHT22;13860;52.370;6.764;2023-08-17T19:17:28;20.10;73.90
26099;DHT22;13860;52.370;6.764;2023-08-17T19:20:37;20.10;74.00
26099;DHT22;13860;52.370;6.764;2023-08-17T19:23:43;20.00;73.90
26099;DHT22;13860;52.370;6.764;2023-08-17T19:26:53;20.00;74.00
26099;DHT22;13860;52.370;6.764;2023-08-17T19:30:02;20.00;74.10
26099;DHT22;13860;52.370;6.764;2023-08-17T19:33:12;19.90;74.10
26099;DHT22;13860;52.370;6.764;2023-08-17T19:36:18;19.80;74.00
26099;DHT22;13860;52.370;6.764;2023-08-17T19:39:25;19.80;74.00
26099;DHT22;13860;52.370;6.764;2023-08-17T19:42:34;19.70;74.10
26099;DHT22;13860;52.370;6.764;2023-08-17T19:45:43;19.70;74.20
26099;DHT22;13860;52.370;6.764;2023-08-17T19:48:48;19.70;74.20